Airfield :
LOGIN :

Register | Disclaimer

   EN    FR    IT 

 










Legend :    VFR   Marginal VFR   IFR   Intensive IFR   Very Intensive IFR
Visi :
Ceiling :
>= 8 km
>= 3000ft
5 to 8 km
1000 to 3000 ft
1500m to 5 km
500 to 1000 ft
800 to 1500m
200 to 500 ft
< 800m
< 200 ft
Symbols :   Thunderstorms  Fog  Heavy snow  Heavy precipitations  Wind > 20 kt
SIGMETs :     Misc.  Thunderstorms  Icing  Turbulence  Mountain Waves  Volcanic Ashes






- Airport Elevation : 215 ft
- IATA code : ABZ


EGPD - Aberdeen / Dyce

CURRENT METAR :
  • 242320Z AUTO 14005KT 120V180 9999 FEW042 15/13 Q1008

EXPIRED METARs :
  • 242250Z AUTO 15005KT 9999 NCD 14/13 Q1009
  • 242220Z AUTO 18009KT 9999 SCT006 14/13 Q1009 TEMPO BKN006
  • 242150Z AUTO 16010KT 120V190 9999 SCT007 BKN043 BKN049 15/13 Q1009 TEMPO BKN007
  • 242120Z AUTO 16010KT 9999 BKN038 OVC044 15/12 Q1010 NOSIG
  • 242050Z AUTO 17012KT 9999 OVC037 16/12 Q1010 NOSIG
  • 242020Z AUTO 17011KT 9999 SCT041 15/12 Q1011
  • 241950Z AUTO 17014KT 9999 NCD 16/12 Q1011
  • 241920Z AUTO 17011KT 9999 NCD 16/11 Q1011
  • 241850Z AUTO 17008KT 130V190 9999 NCD 17/11 Q1012 NOSIG

TAF TAF EGPD
Valid from the 25 at 00:00 until the 26 at 00:00 UTC


242254Z 2500/2524 17010KT 9999 SCT020
TEMPO 2500/2508 BKN010
PROB30
TEMPO 2502/2507 4000 BR BKN004
BECMG 2514/2517 24007KT
PROB30
TEMPO 2518/2524 6000 SHRA



MET'MAP, your aeronautical weather chart ! - Copyright ORBIFLY December 2007 - Disclaimer

ORBIFLY MET'MAP TEAM :

Programming & Development : Alexandra Zaïnal
Original concept : Baudouin d'Aumeries
Technical & hardware support : Manuel Goepfert
Assistance : Marc-Olivier Méhu




SOURCES & CREDITS :

   NOAA